sensor_id;sensor_type;location;lat;lon;timestamp;noise_LAeq;noise_LA_min;noise_LA_max;noise_LA01;noise_LA95
46393;Laerm;32099;53.588;10.176;2024-02-26T00:00:30;45.28;43.16;65.76;;
46393;Laerm;32099;53.588;10.176;2024-02-26T00:02:56;46.25;43.31;59.92;;
46393;Laerm;32099;53.588;10.176;2024-02-26T00:05:22;46.89;43.57;59.41;;
46393;Laerm;32099;53.588;10.176;2024-02-26T00:07:47;44.91;43.38;50.56;;
46393;Laerm;32099;53.588;10.176;2024-02-26T00:10:13;44.69;43.24;52.96;;
46393;Laerm;32099;53.588;10.176;2024-02-26T00:12:39;44.35;43.20;51.00;;
46393;Laerm;32099;53.588;10.176;2024-02-26T00:15:09;44.48;43.04;57.83;;
46393;Laerm;32099;53.588;10.176;2024-02-26T00:17:35;44.00;42.61;57.14;;
46393;Laerm;32099;53.588;10.176;2024-02-26T00:20:02;44.17;42.88;58.98;;
46393;Laerm;32099;53.588;10.176;2024-02-26T00:22:28;44.22;42.36;55.26;;
46393;Laerm;32099;53.588;10.176;2024-02-26T00:24:54;44.50;43.31;56.12;;
46393;Laerm;32099;53.588;10.176;2024-02-26T00:27:19;45.40;43.42;55.68;;
46393;Laerm;32099;53.588;10.176;2024-02-26T00:29:45;44.91;43.34;51.73;;
46393;Laerm;32099;53.588;10.176;2024-02-26T00:32:14;45.00;43.06;57.03;;
46393;Laerm;32099;53.588;10.176;2024-02-26T00:34:39;43.68;42.72;50.37;;
46393;Laerm;32099;53.588;10.176;2024-02-26T00:37:05;43.78;42.40;61.26;;
46393;Laerm;32099;53.588;10.176;2024-02-26T00:39:31;43.63;42.77;53.72;;
46393;Laerm;32099;53.588;10.176;2024-02-26T00:41:56;48.35;42.54;62.13;;
46393;Laerm;32099;53.588;10.176;2024-02-26T00:44:22;51.37;42.71;67.37;;
46393;Laerm;32099;53.588;10.176;2024-02-26T00:46:48;50.70;42.69;66.38;;
46393;Laerm;32099;53.588;10.176;2024-02-26T00:49:16;46.38;43.61;58.30;;
46393;Laerm;32099;53.588;10.176;2024-02-26T00:51:42;45.64;43.70;58.99;;
46393;Laerm;32099;53.588;10.176;2024-02-26T00:54:08;45.45;43.69;55.11;;
46393;Laerm;32099;53.588;10.176;2024-02-26T00:56:33;45.74;43.66;59.92;;
46393;Laerm;32099;53.588;10.176;2024-02-26T00:58:59;45.90;43.62;53.81;;
46393;Laerm;32099;53.588;10.176;2024-02-26T01:01:25;46.42;44.07;53.64;;
46393;Laerm;32099;53.588;10.176;2024-02-26T01:03:50;46.59;44.13;56.45;;
46393;Laerm;32099;53.588;10.176;2024-02-26T01:06:19;45.85;44.42;57.43;;
46393;Laerm;32099;53.588;10.176;2024-02-26T01:08:44;45.97;44.02;52.06;;
46393;Laerm;32099;53.588;10.176;2024-02-26T01:11:10;46.23;43.95;59.59;;
46393;Laerm;32099;53.588;10.176;2024-02-26T01:13:36;45.40;44.07;57.24;;
46393;Laerm;32099;53.588;10.176;2024-02-26T01:16:01;45.79;44.03;52.70;;
46393;Laerm;32099;53.588;10.176;2024-02-26T01:18:27;45.57;43.98;54.23;;
46393;Laerm;32099;53.588;10.176;2024-02-26T01:20:53;45.68;43.94;52.61;;
46393;Laerm;32099;53.588;10.176;2024-02-26T01:23:22;46.04;43.61;58.03;;
46393;Laerm;32099;53.588;10.176;2024-02-26T01:25:47;45.61;43.74;57.72;;
46393;Laerm;32099;53.588;10.176;2024-02-26T01:28:14;45.44;44.16;54.61;;
46393;Laerm;32099;53.588;10.176;2024-02-26T01:30:40;46.41;44.27;59.14;;
46393;Laerm;32099;53.588;10.176;2024-02-26T01:33:06;57.63;44.85;73.20;;
46393;Laerm;32099;53.588;10.176;2024-02-26T01:35:32;46.53;44.36;56.33;;
46393;Laerm;32099;53.588;10.176;2024-02-26T01:37:58;46.25;44.66;54.26;;
46393;Laerm;32099;53.588;10.176;2024-02-26T01:40:29;47.35;45.27;52.53;;
46393;Laerm;32099;53.588;10.176;2024-02-26T01:42:55;49.18;46.14;59.48;;
46393;Laerm;32099;53.588;10.176;2024-02-26T01:45:21;47.27;44.94;52.85;;
46393;Laerm;32099;53.588;10.176;2024-02-26T01:47:48;46.68;44.12;60.83;;
46393;Laerm;32099;53.588;10.176;2024-02-26T01:50:15;47.14;44.30;60.78;;
46393;Laerm;32099;53.588;10.176;2024-02-26T01:52:42;47.48;44.16;56.04;;
46393;Laerm;32099;53.588;10.176;2024-02-26T01:55:08;46.74;44.46;58.64;;
46393;Laerm;32099;53.588;10.176;2024-02-26T01:57:37;47.71;44.75;58.80;;
46393;Laerm;32099;53.588;10.176;2024-02-26T02:00:03;47.45;45.16;55.75;;
46393;Laerm;32099;53.588;10.176;2024-02-26T02:02:31;47.58;45.11;64.02;;
46393;Laerm;32099;53.588;10.176;2024-02-26T02:04:57;48.16;44.78;54.23;;
46393;Laerm;32099;53.588;10.176;2024-02-26T02:07:23;48.89;45.28;56.97;;
46393;Laerm;32099;53.588;10.176;2024-02-26T02:09:50;48.10;44.88;55.58;;
46393;Laerm;32099;53.588;10.176;2024-02-26T02:12:16;47.66;45.46;54.45;;
46393;Laerm;32099;53.588;10.176;2024-02-26T02:14:44;47.45;45.68;53.96;;
46393;Laerm;32099;53.588;10.176;2024-02-26T02:17:10;48.02;44.56;57.15;;
46393;Laerm;32099;53.588;10.176;2024-02-26T02:19:35;48.76;45.95;59.92;;
46393;Laerm;32099;53.588;10.176;2024-02-26T02:22:04;47.46;44.86;51.74;;
46393;Laerm;32099;53.588;10.176;2024-02-26T02:24:30;47.34;44.68;62.37;;
46393;Laerm;32099;53.588;10.176;2024-02-26T02:26:56;48.60;44.97;57.00;;
46393;Laerm;32099;53.588;10.176;2024-02-26T02:29:22;47.42;44.90;57.04;;
46393;Laerm;32099;53.588;10.176;2024-02-26T02:31:49;47.08;44.67;57.62;;
46393;Laerm;32099;53.588;10.176;2024-02-26T02:34:14;47.80;45.45;51.90;;
46393;Laerm;32099;53.588;10.176;2024-02-26T02:36:52;47.95;45.43;57.92;;
46393;Laerm;32099;53.588;10.176;2024-02-26T02:39:20;47.95;45.95;61.02;;
46393;Laerm;32099;53.588;10.176;2024-02-26T02:41:46;47.93;45.19;57.20;;
46393;Laerm;32099;53.588;10.176;2024-02-26T02:44:12;47.13;44.46;52.25;;
46393;Laerm;32099;53.588;10.176;2024-02-26T02:46:38;46.08;44.16;52.40;;
46393;Laerm;32099;53.588;10.176;2024-02-26T02:49:03;46.96;43.29;63.15;;
46393;Laerm;32099;53.588;10.176;2024-02-26T02:51:29;46.23;44.19;51.56;;
46393;Laerm;32099;53.588;10.176;2024-02-26T02:53:55;45.60;43.81;58.56;;
46393;Laerm;32099;53.588;10.176;2024-02-26T02:56:23;45.69;43.65;54.70;;
46393;Laerm;32099;53.588;10.176;2024-02-26T02:58:49;45.80;44.08;59.38;;
46393;Laerm;32099;53.588;10.176;2024-02-26T03:01:14;46.62;44.19;58.16;;
46393;Laerm;32099;53.588;10.176;2024-02-26T03:03:40;47.65;44.99;61.77;;
46393;Laerm;32099;53.588;10.176;2024-02-26T03:06:06;46.09;44.59;57.32;;
46393;Laerm;32099;53.588;10.176;2024-02-26T03:08:32;46.15;44.36;58.83;;
46393;Laerm;32099;53.588;10.176;2024-02-26T03:10:58;46.76;44.63;53.56;;
46393;Laerm;32099;53.588;10.176;2024-02-26T03:13:27;47.43;44.38;57.86;;
46393;Laerm;32099;53.588;10.176;2024-02-26T03:15:53;47.32;44.20;57.91;;
46393;Laerm;32099;53.588;10.176;2024-02-26T03:18:19;46.10;44.21;56.87;;
46393;Laerm;32099;53.588;10.176;2024-02-26T03:20:45;47.05;44.00;59.31;;
46393;Laerm;32099;53.588;10.176;2024-02-26T03:23:10;58.28;44.79;75.86;;
46393;Laerm;32099;53.588;10.176;2024-02-26T03:25:36;46.57;44.81;54.70;;
46393;Laerm;32099;53.588;10.176;2024-02-26T03:28:02;45.68;44.30;54.52;;
46393;Laerm;32099;53.588;10.176;2024-02-26T03:30:30;54.37;44.53;71.64;;
46393;Laerm;32099;53.588;10.176;2024-02-26T03:32:56;51.94;45.09;68.69;;
46393;Laerm;32099;53.588;10.176;2024-02-26T03:35:22;46.78;44.96;58.38;;
46393;Laerm;32099;53.588;10.176;2024-02-26T03:37:47;47.39;44.53;57.36;;
46393;Laerm;32099;53.588;10.176;2024-02-26T03:40:14;54.83;45.61;71.43;;
46393;Laerm;32099;53.588;10.176;2024-02-26T03:42:39;49.67;45.90;62.52;;
46393;Laerm;32099;53.588;10.176;2024-02-26T03:45:06;47.96;45.32;60.57;;
46393;Laerm;32099;53.588;10.176;2024-02-26T03:47:34;49.93;47.19;55.97;;
46393;Laerm;32099;53.588;10.176;2024-02-26T03:50:00;49.88;46.71;60.17;;
46393;Laerm;32099;53.588;10.176;2024-02-26T03:52:26;48.97;46.83;54.37;;
46393;Laerm;32099;53.588;10.176;2024-02-26T03:54:51;49.10;46.81;59.73;;
46393;Laerm;32099;53.588;10.176;2024-02-26T03:57:17;49.84;47.52;58.76;;
46393;Laerm;32099;53.588;10.176;2024-02-26T03:59:43;57.97;47.52;75.98;;
46393;Laerm;32099;53.588;10.176;2024-02-26T04:02:08;50.63;47.79;57.94;;
46393;Laerm;32099;53.588;10.176;2024-02-26T04:04:37;49.92;47.01;58.85;;
46393;Laerm;32099;53.588;10.176;2024-02-26T04:07:03;49.12;46.89;60.52;;
46393;Laerm;32099;53.588;10.176;2024-02-26T04:09:31;50.61;47.68;60.53;;
46393;Laerm;32099;53.588;10.176;2024-02-26T04:11:57;51.85;48.46;58.81;;
46393;Laerm;32099;53.588;10.176;2024-02-26T04:14:22;52.02;48.81;61.17;;
46393;Laerm;32099;53.588;10.176;2024-02-26T04:16:48;51.85;48.65;58.34;;
46393;Laerm;32099;53.588;10.176;2024-02-26T04:19:14;52.40;48.60;63.33;;
46393;Laerm;32099;53.588;10.176;2024-02-26T04:21:43;54.33;48.47;69.99;;
46393;Laerm;32099;53.588;10.176;2024-02-26T04:24:09;51.05;48.23;60.35;;
46393;Laerm;32099;53.588;10.176;2024-02-26T04:26:35;50.95;47.59;58.34;;
46393;Laerm;32099;53.588;10.176;2024-02-26T04:29:01;57.15;47.89;74.44;;
46393;Laerm;32099;53.588;10.176;2024-02-26T04:31:26;51.42;47.76;58.12;;
46393;Laerm;32099;53.588;10.176;2024-02-26T04:33:52;50.95;47.03;61.55;;
46393;Laerm;32099;53.588;10.176;2024-02-26T04:36:18;50.91;47.94;57.80;;
46393;Laerm;32099;53.588;10.176;2024-02-26T04:38:46;50.84;47.37;57.49;;
46393;Laerm;32099;53.588;10.176;2024-02-26T04:41:12;50.54;47.25;64.39;;
46393;Laerm;32099;53.588;10.176;2024-02-26T04:43:38;52.06;47.16;69.71;;
46393;Laerm;32099;53.588;10.176;2024-02-26T04:46:05;58.25;46.74;72.40;;
46393;Laerm;32099;53.588;10.176;2024-02-26T04:48:30;56.45;47.86;71.52;;
46393;Laerm;32099;53.588;10.176;2024-02-26T04:50:56;50.21;47.21;59.11;;
46393;Laerm;32099;53.588;10.176;2024-02-26T04:53:22;58.08;47.70;72.11;;
46393;Laerm;32099;53.588;10.176;2024-02-26T04:55:50;52.97;48.09;67.10;;
46393;Laerm;32099;53.588;10.176;2024-02-26T04:58:16;53.14;49.43;62.59;;
46393;Laerm;32099;53.588;10.176;2024-02-26T05:00:41;58.91;51.47;73.91;;
46393;Laerm;32099;53.588;10.176;2024-02-26T05:03:07;59.22;50.11;72.15;;
46393;Laerm;32099;53.588;10.176;2024-02-26T05:05:33;54.87;49.10;65.54;;
46393;Laerm;32099;53.588;10.176;2024-02-26T05:07:59;60.10;49.95;75.84;;
46393;Laerm;32099;53.588;10.176;2024-02-26T05:10:25;57.23;50.29;72.71;;
46393;Laerm;32099;53.588;10.176;2024-02-26T05:12:55;53.55;50.70;58.57;;
46393;Laerm;32099;53.588;10.176;2024-02-26T05:15:21;54.17;50.47;62.99;;
46393;Laerm;32099;53.588;10.176;2024-02-26T05:17:47;56.80;51.41;66.78;;
46393;Laerm;32099;53.588;10.176;2024-02-26T05:20:13;60.60;50.52;74.46;;
46393;Laerm;32099;53.588;10.176;2024-02-26T05:22:39;56.81;49.95;68.93;;
46393;Laerm;32099;53.588;10.176;2024-02-26T05:25:05;55.86;51.16;65.96;;
46393;Laerm;32099;53.588;10.176;2024-02-26T05:27:31;56.19;51.00;68.08;;
46393;Laerm;32099;53.588;10.176;2024-02-26T05:29:59;57.51;51.25;69.50;;
46393;Laerm;32099;53.588;10.176;2024-02-26T05:32:25;58.40;51.37;68.33;;
46393;Laerm;32099;53.588;10.176;2024-02-26T05:34:51;54.27;51.18;68.93;;
46393;Laerm;32099;53.588;10.176;2024-02-26T05:37:17;56.35;51.84;70.63;;
46393;Laerm;32099;53.588;10.176;2024-02-26T05:39:43;54.85;52.58;58.80;;
46393;Laerm;32099;53.588;10.176;2024-02-26T05:42:08;60.18;51.50;76.85;;
46393;Laerm;32099;53.588;10.176;2024-02-26T05:44:34;54.56;51.31;70.36;;
46393;Laerm;32099;53.588;10.176;2024-02-26T05:47:03;57.42;51.52;79.98;;
46393;Laerm;32099;53.588;10.176;2024-02-26T05:49:29;55.09;51.39;67.02;;
46393;Laerm;32099;53.588;10.176;2024-02-26T05:51:54;57.01;50.63;72.54;;
46393;Laerm;32099;53.588;10.176;2024-02-26T05:54:20;57.49;50.78;72.98;;
46393;Laerm;32099;53.588;10.176;2024-02-26T05:56:46;53.52;50.28;62.43;;
46393;Laerm;32099;53.588;10.176;2024-02-26T05:59:11;53.56;50.87;57.48;;
46393;Laerm;32099;53.588;10.176;2024-02-26T06:01:37;55.37;51.20;68.98;;
46393;Laerm;32099;53.588;10.176;2024-02-26T06:04:05;63.73;50.69;80.32;;
46393;Laerm;32099;53.588;10.176;2024-02-26T06:06:31;59.25;50.41;74.57;;
46393;Laerm;32099;53.588;10.176;2024-02-26T06:08:57;58.82;50.32;71.51;;
46393;Laerm;32099;53.588;10.176;2024-02-26T06:11:23;60.99;49.65;80.18;;
46393;Laerm;32099;53.588;10.176;2024-02-26T06:13:48;57.43;50.31;71.33;;
46393;Laerm;32099;53.588;10.176;2024-02-26T06:16:14;58.27;50.63;73.75;;
46393;Laerm;32099;53.588;10.176;2024-02-26T06:18:40;57.30;51.29;70.87;;
46393;Laerm;32099;53.588;10.176;2024-02-26T06:21:11;57.26;50.29;71.65;;
46393;Laerm;32099;53.588;10.176;2024-02-26T06:23:37;58.08;50.17;72.53;;
46393;Laerm;32099;53.588;10.176;2024-02-26T06:26:03;58.62;51.16;73.77;;
46393;Laerm;32099;53.588;10.176;2024-02-26T06:28:29;63.01;50.42;78.46;;
46393;Laerm;32099;53.588;10.176;2024-02-26T06:30:55;54.85;50.89;63.41;;
46393;Laerm;32099;53.588;10.176;2024-02-26T06:33:21;60.33;51.28;75.97;;
46393;Laerm;32099;53.588;10.176;2024-02-26T06:35:46;56.55;52.09;67.42;;
46393;Laerm;32099;53.588;10.176;2024-02-26T06:38:15;58.62;51.24;71.28;;
46393;Laerm;32099;53.588;10.176;2024-02-26T06:40:41;58.03;51.63;66.22;;
46393;Laerm;32099;53.588;10.176;2024-02-26T06:43:07;60.22;53.11;72.11;;
46393;Laerm;32099;53.588;10.176;2024-02-26T06:45:33;61.41;53.15;74.46;;
46393;Laerm;32099;53.588;10.176;2024-02-26T06:47:58;59.99;53.59;71.16;;
46393;Laerm;32099;53.588;10.176;2024-02-26T06:50:24;59.03;52.02;73.36;;
46393;Laerm;32099;53.588;10.176;2024-02-26T06:52:50;60.98;52.36;75.15;;
46393;Laerm;32099;53.588;10.176;2024-02-26T06:55:18;56.00;51.46;67.24;;
46393;Laerm;32099;53.588;10.176;2024-02-26T06:57:44;60.79;51.96;73.73;;
46393;Laerm;32099;53.588;10.176;2024-02-26T07:00:11;59.31;53.52;70.12;;
46393;Laerm;32099;53.588;10.176;2024-02-26T07:02:37;56.90;52.18;71.51;;
46393;Laerm;32099;53.588;10.176;2024-02-26T07:05:03;57.41;51.51;65.62;;
46393;Laerm;32099;53.588;10.176;2024-02-26T07:07:28;62.66;52.57;76.73;;
46393;Laerm;32099;53.588;10.176;2024-02-26T07:09:55;55.00;50.86;64.00;;
46393;Laerm;32099;53.588;10.176;2024-02-26T07:12:23;57.15;51.66;70.62;;
46393;Laerm;32099;53.588;10.176;2024-02-26T07:14:49;57.82;51.12;73.52;;
46393;Laerm;32099;53.588;10.176;2024-02-26T07:17:15;58.57;52.07;72.52;;
46393;Laerm;32099;53.588;10.176;2024-02-26T07:19:41;54.98;52.49;61.62;;
46393;Laerm;32099;53.588;10.176;2024-02-26T07:22:06;57.75;52.88;70.02;;
46393;Laerm;32099;53.588;10.176;2024-02-26T07:24:32;70.94;54.21;95.47;;
46393;Laerm;32099;53.588;10.176;2024-02-26T07:26:58;56.23;53.51;61.63;;
46393;Laerm;32099;53.588;10.176;2024-02-26T07:29:26;59.59;53.67;73.57;;
46393;Laerm;32099;53.588;10.176;2024-02-26T07:31:52;55.91;53.33;63.01;;
46393;Laerm;32099;53.588;10.176;2024-02-26T07:34:17;61.02;54.31;72.78;;
46393;Laerm;32099;53.588;10.176;2024-02-26T07:36:43;59.63;53.98;72.66;;
46393;Laerm;32099;53.588;10.176;2024-02-26T07:39:09;61.56;54.51;75.52;;
46393;Laerm;32099;53.588;10.176;2024-02-26T07:41:34;61.83;54.03;74.43;;
46393;Laerm;32099;53.588;10.176;2024-02-26T07:44:00;63.16;53.08;75.94;;
46393;Laerm;32099;53.588;10.176;2024-02-26T07:46:28;59.65;53.31;74.20;;
46393;Laerm;32099;53.588;10.176;2024-02-26T07:48:54;61.42;53.40;72.69;;
46393;Laerm;32099;53.588;10.176;2024-02-26T07:51:20;61.18;53.94;73.46;;
46393;Laerm;32099;53.588;10.176;2024-02-26T07:53:45;66.11;53.88;80.63;;
46393;Laerm;32099;53.588;10.176;2024-02-26T07:56:11;60.43;53.75;76.23;;
46393;Laerm;32099;53.588;10.176;2024-02-26T07:58:37;57.99;54.63;68.58;;
46393;Laerm;32099;53.588;10.176;2024-02-26T08:01:03;61.62;55.03;75.23;;
46393;Laerm;32099;53.588;10.176;2024-02-26T08:03:31;62.03;54.84;79.71;;
46393;Laerm;32099;53.588;10.176;2024-02-26T08:05:57;64.83;58.56;76.84;;
46393;Laerm;32099;53.588;10.176;2024-02-26T08:08:22;64.89;57.65;76.36;;
46393;Laerm;32099;53.588;10.176;2024-02-26T08:10:48;68.74;57.81;80.39;;
46393;Laerm;32099;53.588;10.176;2024-02-26T08:13:14;79.80;64.62;93.58;;
46393;Laerm;32099;53.588;10.176;2024-02-26T08:15:39;67.35;57.07;74.05;;
46393;Laerm;32099;53.588;10.176;2024-02-26T08:18:05;63.15;54.50;71.47;;
46393;Laerm;32099;53.588;10.176;2024-02-26T08:20:34;61.60;54.66;78.14;;
46393;Laerm;32099;53.588;10.176;2024-02-26T08:22:59;60.11;54.39;75.28;;
46393;Laerm;32099;53.588;10.176;2024-02-26T08:25:25;60.73;53.29;74.77;;
46393;Laerm;32099;53.588;10.176;2024-02-26T08:27:51;56.41;53.56;61.79;;
46393;Laerm;32099;53.588;10.176;2024-02-26T08:30:17;61.82;53.54;78.54;;
46393;Laerm;32099;53.588;10.176;2024-02-26T08:32:42;60.54;53.52;76.97;;
46393;Laerm;32099;53.588;10.176;2024-02-26T08:35:08;63.41;54.14;77.52;;
46393;Laerm;32099;53.588;10.176;2024-02-26T08:37:36;61.74;54.70;76.07;;
46393;Laerm;32099;53.588;10.176;2024-02-26T08:40:03;56.71;53.90;62.67;;
46393;Laerm;32099;53.588;10.176;2024-02-26T08:42:29;59.49;54.32;70.72;;
46393;Laerm;32099;53.588;10.176;2024-02-26T08:44:55;60.71;53.94;74.28;;
46393;Laerm;32099;53.588;10.176;2024-02-26T08:47:20;63.36;53.79;81.11;;
46393;Laerm;32099;53.588;10.176;2024-02-26T08:49:46;60.08;54.09;74.94;;
46393;Laerm;32099;53.588;10.176;2024-02-26T08:52:12;59.25;55.04;71.79;;
46393;Laerm;32099;53.588;10.176;2024-02-26T08:54:40;59.28;54.58;65.20;;
46393;Laerm;32099;53.588;10.176;2024-02-26T08:57:06;62.18;53.51;70.47;;
46393;Laerm;32099;53.588;10.176;2024-02-26T08:59:32;61.88;53.91;74.57;;
46393;Laerm;32099;53.588;10.176;2024-02-26T09:01:59;61.05;54.26;73.04;;
46393;Laerm;32099;53.588;10.176;2024-02-26T09:04:25;61.18;54.31;74.55;;
46393;Laerm;32099;53.588;10.176;2024-02-26T09:06:51;62.39;54.07;76.67;;
46393;Laerm;32099;53.588;10.176;2024-02-26T09:09:16;62.88;54.57;76.57;;
46393;Laerm;32099;53.588;10.176;2024-02-26T09:11:45;75.06;59.86;85.92;;
46393;Laerm;32099;53.588;10.176;2024-02-26T09:14:10;72.79;56.66;78.91;;
46393;Laerm;32099;53.588;10.176;2024-02-26T09:16:36;62.42;56.74;78.04;;
46393;Laerm;32099;53.588;10.176;2024-02-26T09:19:02;61.89;54.39;70.52;;
46393;Laerm;32099;53.588;10.176;2024-02-26T09:21:27;71.72;54.24;101.76;;
46393;Laerm;32099;53.588;10.176;2024-02-26T09:23:53;62.71;52.96;78.40;;
46393;Laerm;32099;53.588;10.176;2024-02-26T09:26:19;63.59;52.90;80.51;;
46393;Laerm;32099;53.588;10.176;2024-02-26T09:28:47;54.57;51.82;62.07;;
46393;Laerm;32099;53.588;10.176;2024-02-26T09:31:17;59.15;52.12;72.11;;
46393;Laerm;32099;53.588;10.176;2024-02-26T09:33:43;63.16;53.19;78.31;;
46393;Laerm;32099;53.588;10.176;2024-02-26T09:36:09;61.58;53.84;75.21;;
46393;Laerm;32099;53.588;10.176;2024-02-26T09:38:35;61.50;51.87;73.63;;
46393;Laerm;32099;53.588;10.176;2024-02-26T09:41:00;56.29;51.61;70.38;;
46393;Laerm;32099;53.588;10.176;2024-02-26T09:43:33;57.71;50.34;74.00;;
46393;Laerm;32099;53.588;10.176;2024-02-26T09:46:02;53.89;51.37;62.15;;
46393;Laerm;32099;53.588;10.176;2024-02-26T09:48:29;64.75;52.63;85.79;;
46393;Laerm;32099;53.588;10.176;2024-02-26T09:50:55;62.31;53.11;78.60;;
46393;Laerm;32099;53.588;10.176;2024-02-26T09:53:22;57.31;52.55;72.25;;
46393;Laerm;32099;53.588;10.176;2024-02-26T09:55:48;63.78;52.01;82.58;;
46393;Laerm;32099;53.588;10.176;2024-02-26T09:58:14;61.43;50.82;80.56;;
46393;Laerm;32099;53.588;10.176;2024-02-26T10:00:41;60.83;50.40;77.39;;
46393;Laerm;32099;53.588;10.176;2024-02-26T10:03:13;57.99;50.00;74.64;;
46393;Laerm;32099;53.588;10.176;2024-02-26T10:05:41;62.15;49.93;77.46;;
46393;Laerm;32099;53.588;10.176;2024-02-26T10:08:08;59.74;49.75;79.42;;
46393;Laerm;32099;53.588;10.176;2024-02-26T10:10:34;64.06;51.33;77.69;;
46393;Laerm;32099;53.588;10.176;2024-02-26T10:13:03;56.69;51.38;69.27;;
46393;Laerm;32099;53.588;10.176;2024-02-26T10:15:29;55.05;51.34;60.73;;
46393;Laerm;32099;53.588;10.176;2024-02-26T10:17:55;55.16;52.36;61.17;;
46393;Laerm;32099;53.588;10.176;2024-02-26T10:20:24;59.42;52.03;73.26;;
46393;Laerm;32099;53.588;10.176;2024-02-26T10:22:50;58.26;51.98;74.45;;
46393;Laerm;32099;53.588;10.176;2024-02-26T10:25:15;58.53;52.38;67.43;;
46393;Laerm;32099;53.588;10.176;2024-02-26T10:27:41;60.95;52.30;75.99;;
46393;Laerm;32099;53.588;10.176;2024-02-26T10:30:16;60.79;51.74;76.97;;
46393;Laerm;32099;53.588;10.176;2024-02-26T10:32:42;62.42;51.39;76.56;;
46393;Laerm;32099;53.588;10.176;2024-02-26T10:35:09;63.79;51.56;76.32;;
46393;Laerm;32099;53.588;10.176;2024-02-26T10:37:37;63.29;53.79;76.97;;
46393;Laerm;32099;53.588;10.176;2024-02-26T10:40:04;62.11;52.10;73.50;;
46393;Laerm;32099;53.588;10.176;2024-02-26T10:42:30;61.75;51.56;76.13;;
46393;Laerm;32099;53.588;10.176;2024-02-26T10:44:57;61.62;51.23;75.54;;
46393;Laerm;32099;53.588;10.176;2024-02-26T10:47:23;61.10;50.73;77.72;;
46393;Laerm;32099;53.588;10.176;2024-02-26T10:49:50;58.46;50.11;73.96;;
46393;Laerm;32099;53.588;10.176;2024-02-26T10:52:19;60.46;50.33;72.44;;
46393;Laerm;32099;53.588;10.176;2024-02-26T10:54:47;54.54;51.14;61.55;;
46393;Laerm;32099;53.588;10.176;2024-02-26T10:57:15;56.52;50.67;68.81;;
46393;Laerm;32099;53.588;10.176;2024-02-26T10:59:44;59.60;49.37;76.63;;
46393;Laerm;32099;53.588;10.176;2024-02-26T11:02:10;63.47;49.86;76.95;;
46393;Laerm;32099;53.588;10.176;2024-02-26T11:04:36;57.99;49.39;72.64;;
46393;Laerm;32099;53.588;10.176;2024-02-26T11:07:03;58.28;49.45;70.36;;
46393;Laerm;32099;53.588;10.176;2024-02-26T11:09:30;61.73;47.99;74.92;;
46393;Laerm;32099;53.588;10.176;2024-02-26T11:11:59;60.47;48.73;74.27;;
46393;Laerm;32099;53.588;10.176;2024-02-26T11:14:29;55.74;48.34;69.40;;
46393;Laerm;32099;53.588;10.176;2024-02-26T11:16:57;61.05;47.36;78.18;;
46393;Laerm;32099;53.588;10.176;2024-02-26T11:19:24;60.52;48.48;75.34;;
46393;Laerm;32099;53.588;10.176;2024-02-26T11:21:50;54.22;47.40;64.27;;
46393;Laerm;32099;53.588;10.176;2024-02-26T11:24:16;60.95;48.17;79.04;;
46393;Laerm;32099;53.588;10.176;2024-02-26T11:26:45;52.45;47.76;60.41;;
46393;Laerm;32099;53.588;10.176;2024-02-26T11:29:19;50.79;47.24;59.22;;
46393;Laerm;32099;53.588;10.176;2024-02-26T11:31:47;60.77;47.72;75.64;;
46393;Laerm;32099;53.588;10.176;2024-02-26T11:34:16;60.36;46.62;77.53;;
46393;Laerm;32099;53.588;10.176;2024-02-26T11:36:42;58.40;47.74;72.78;;
46393;Laerm;32099;53.588;10.176;2024-02-26T11:39:08;57.49;47.88;70.75;;
46393;Laerm;32099;53.588;10.176;2024-02-26T11:41:33;49.51;46.97;60.36;;
46393;Laerm;32099;53.588;10.176;2024-02-26T11:44:01;58.71;47.22;73.01;;
46393;Laerm;32099;53.588;10.176;2024-02-26T11:46:31;60.55;47.71;78.98;;
46393;Laerm;32099;53.588;10.176;2024-02-26T11:48:58;60.28;47.87;76.66;;
46393;Laerm;32099;53.588;10.176;2024-02-26T11:51:33;59.37;47.96;75.95;;
46393;Laerm;32099;53.588;10.176;2024-02-26T11:53:59;65.50;47.53;80.52;;
46393;Laerm;32099;53.588;10.176;2024-02-26T11:56:25;62.12;47.78;76.68;;
46393;Laerm;32099;53.588;10.176;2024-02-26T11:58:57;56.39;47.49;66.82;;
46393;Laerm;32099;53.588;10.176;2024-02-26T12:01:43;57.29;47.67;72.53;;
46393;Laerm;32099;53.588;10.176;2024-02-26T12:04:14;59.86;47.61;75.66;;
46393;Laerm;32099;53.588;10.176;2024-02-26T12:06:45;55.11;49.85;63.56;;
46393;Laerm;32099;53.588;10.176;2024-02-26T12:11:51;57.05;50.64;74.52;;
46393;Laerm;32099;53.588;10.176;2024-02-26T12:14:24;66.42;51.17;85.66;;
46393;Laerm;32099;53.588;10.176;2024-02-26T12:16:55;67.94;50.73;81.55;;
46393;Laerm;32099;53.588;10.176;2024-02-26T12:19:21;74.01;51.10;100.96;;
46393;Laerm;32099;53.588;10.176;2024-02-26T12:21:51;60.99;52.01;73.50;;
46393;Laerm;32099;53.588;10.176;2024-02-26T12:24:18;62.83;51.07;78.65;;
46393;Laerm;32099;53.588;10.176;2024-02-26T12:26:44;62.15;51.42;80.71;;
46393;Laerm;32099;53.588;10.176;2024-02-26T12:29:10;61.66;51.42;79.11;;
46393;Laerm;32099;53.588;10.176;2024-02-26T12:31:35;54.43;50.98;67.46;;
46393;Laerm;32099;53.588;10.176;2024-02-26T12:34:04;55.19;50.71;63.42;;
46393;Laerm;32099;53.588;10.176;2024-02-26T12:36:33;60.80;50.97;76.83;;
46393;Laerm;32099;53.588;10.176;2024-02-26T12:38:59;54.94;51.13;61.57;;
46393;Laerm;32099;53.588;10.176;2024-02-26T12:41:26;65.94;49.41;82.12;;
46393;Laerm;32099;53.588;10.176;2024-02-26T12:43:53;50.62;47.52;59.85;;
46393;Laerm;32099;53.588;10.176;2024-02-26T12:46:18;60.49;48.35;76.85;;
46393;Laerm;32099;53.588;10.176;2024-02-26T12:48:44;63.23;47.31;79.51;;
46393;Laerm;32099;53.588;10.176;2024-02-26T12:51:14;56.72;53.19;64.83;;
46393;Laerm;32099;53.588;10.176;2024-02-26T12:53:41;60.92;49.05;78.07;;
46393;Laerm;32099;53.588;10.176;2024-02-26T12:56:07;61.52;47.81;78.70;;
46393;Laerm;32099;53.588;10.176;2024-02-26T12:58:35;56.12;48.40;64.67;;
46393;Laerm;32099;53.588;10.176;2024-02-26T13:01:02;61.66;48.65;78.53;;
46393;Laerm;32099;53.588;10.176;2024-02-26T13:03:27;60.62;48.04;76.48;;
46393;Laerm;32099;53.588;10.176;2024-02-26T13:05:54;62.87;48.91;75.91;;
46393;Laerm;32099;53.588;10.176;2024-02-26T13:08:22;61.07;48.92;75.58;;
46393;Laerm;32099;53.588;10.176;2024-02-26T13:10:48;68.41;48.17;85.51;;
46393;Laerm;32099;53.588;10.176;2024-02-26T13:13:15;63.40;49.28;79.49;;
46393;Laerm;32099;53.588;10.176;2024-02-26T13:15:40;57.95;50.67;77.91;;
46393;Laerm;32099;53.588;10.176;2024-02-26T13:18:09;60.47;47.86;80.23;;
46393;Laerm;32099;53.588;10.176;2024-02-26T13:20:35;52.76;47.74;60.46;;
46393;Laerm;32099;53.588;10.176;2024-02-26T13:23:01;56.42;47.68;66.96;;
46393;Laerm;32099;53.588;10.176;2024-02-26T13:25:30;63.69;50.91;78.62;;
46393;Laerm;32099;53.588;10.176;2024-02-26T13:28:05;63.75;48.46;80.59;;
46393;Laerm;32099;53.588;10.176;2024-02-26T13:30:31;62.17;47.87;78.60;;